Startpagina
METAR-TAF:

METAR-TAF

Vliegvelden :

Steamboat Springs, Colorado, Verenigde Staten

breedte: 40-30-58N, lengte: 106-51-59W, hoogte: 2098 m

Actueel weer

Dit bericht is 27 minuten geleden gemaakt, om 01:55 UTC
Wind 7 kt uit het zuidzuidoosten
Temperatuur 28°C
Vochtigheid 17%
Druk 1024 hPa
Zicht: 16.1 km
Verspreide wolken op 11000 ft

METAR: KSBS 210155Z AUTO 15007KT 10SM SCT110 28/01 A3025 RMK AO1 T02750005

Tijdstip: 20:22 (02:22 UTC)


TAF: ontbreekt

Waarnemingen en weersverwachtingen van meer dan 4000 vliegvelden (METAR en TAF).

De beschikbare stations zijn de gele en rode punten op de kaart.

Ga met uw muis naar het station om de naam te zien.

Klik dan om waarnemingen en weersverwachtingen te zien.

kaart wijzigen: klik op de groene knoppen met een zwart kruis om in te zoomen, op de groene knop met een streepje om uit te zoomen of op de groene pijlen voor aangrenzende kaarten.


METAR-TAF: